Time;durP1;ratioP1;P1;durP2;ratioP2;P2;SDS_P1;SDS_P2;PMS_P1;PMS_P2;Temp;Humidity;BMP_temperature;BMP_pressure;BME280_temperature;BME280_humidity;BME280_pressure;Samples;Min_cycle;Max_cycle;Signal;HPM_P1;HPM_P2
2020/12/24 00:01:03;;;;;;;2.60;1.30;;;10.00;99.40;;;;;;5037559;28;20694;-69
2020/12/24 00:03:29;;;;;;;1.10;1.00;;;10.00;98.00;;;;;;5046635;28;20812;-69
2020/12/24 00:05:54;;;;;;;1.20;1.07;;;10.10;96.80;;;;;;5044919;28;20191;-69
2020/12/24 00:08:21;;;;;;;1.20;1.10;;;10.00;97.50;;;;;;5043540;28;20262;-69
2020/12/24 00:10:48;;;;;;;1.03;1.00;;;10.00;97.60;;;;;;5039837;28;20238;-69
2020/12/24 00:13:14;;;;;;;1.43;1.00;;;10.00;97.90;;;;;;5041177;28;20215;-69
2020/12/24 00:15:40;;;;;;;1.40;1.30;;;10.00;97.30;;;;;;5024361;28;20184;-70
2020/12/24 00:18:05;;;;;;;1.00;1.00;;;9.90;97.20;;;;;;5047595;28;20266;-70
2020/12/24 00:20:31;;;;;;;1.43;1.30;;;9.90;96.90;;;;;;5041519;28;20654;-70
2020/12/24 00:22:56;;;;;;;2.67;1.10;;;9.90;97.20;;;;;;5043760;28;20691;-70
2020/12/24 00:25:22;;;;;;;1.27;1.10;;;9.90;95.90;;;;;;5062585;28;20210;-70
2020/12/24 00:27:47;;;;;;;1.20;0.90;;;9.90;96.00;;;;;;5070233;28;20242;-69
2020/12/24 00:30:13;;;;;;;1.10;1.10;;;9.90;96.00;;;;;;5053437;28;20565;-69
2020/12/24 00:32:39;;;;;;;1.70;1.03;;;9.90;96.30;;;;;;5048095;28;20207;-69
2020/12/24 00:35:05;;;;;;;1.13;1.00;;;9.80;96.90;;;;;;5027851;28;20274;-69
2020/12/24 00:37:30;;;;;;;1.57;0.97;;;9.80;97.30;;;;;;5046382;28;20184;-70
2020/12/24 00:39:56;;;;;;;1.33;1.23;;;9.80;97.20;;;;;;5044031;28;20199;-70
2020/12/24 00:42:22;;;;;;;1.60;1.43;;;9.70;97.30;;;;;;5041796;28;20290;-70
2020/12/24 00:44:47;;;;;;;1.43;1.33;;;9.70;97.30;;;;;;5045342;28;20233;-70
2020/12/24 00:47:13;;;;;;;1.23;1.13;;;9.70;97.60;;;;;;5040969;28;20228;-71
2020/12/24 00:49:38;;;;;;;1.53;1.40;;;9.60;98.30;;;;;;5042219;28;20168;-70
2020/12/24 00:52:04;;;;;;;2.23;1.40;;;9.60;98.70;;;;;;5037105;28;20206;-70
2020/12/24 00:54:30;;;;;;;2.47;1.20;;;9.60;98.50;;;;;;5045561;28;20183;-69
2020/12/24 00:56:55;;;;;;;1.40;1.20;;;9.60;99.00;;;;;;5040459;28;20244;-68
2020/12/24 00:59:21;;;;;;;1.43;1.00;;;9.60;99.10;;;;;;5044844;28;20605;-69
2020/12/24 01:01:46;;;;;;;2.70;1.30;;;9.60;99.30;;;;;;5044713;28;20216;-69
2020/12/24 01:04:12;;;;;;;1.37;1.20;;;9.60;99.70;;;;;;5047948;28;20172;-69
2020/12/24 01:06:38;;;;;;;3.03;1.00;;;9.50;99.90;;;;;;5042709;28;20225;-69
2020/12/24 01:09:04;;;;;;;1.20;1.10;;;9.50;99.90;;;;;;5042697;28;20187;-69
2020/12/24 01:11:31;;;;;;;1.27;1.00;;;9.50;99.90;;;;;;5042224;28;20188;-69
2020/12/24 01:13:57;;;;;;;1.83;1.30;;;9.50;99.90;;;;;;5041768;28;20187;-69
2020/12/24 01:16:22;;;;;;;2.87;1.43;;;9.50;99.90;;;;;;5043707;28;20262;-69
2020/12/24 01:18:48;;;;;;;1.80;1.17;;;9.50;99.90;;;;;;5038394;28;20264;-69
2020/12/24 01:21:14;;;;;;;1.33;1.23;;;9.50;99.90;;;;;;5041703;28;20261;-69
2020/12/24 01:23:40;;;;;;;1.30;1.10;;;9.60;99.90;;;;;;5038073;28;20200;-69
2020/12/24 01:26:08;;;;;;;1.30;1.17;;;9.60;99.90;;;;;;5045215;28;20293;-69
2020/12/24 01:28:34;;;;;;;2.10;1.80;;;9.60;99.90;;;;;;5036676;28;20195;-69
2020/12/24 01:31:00;;;;;;;1.97;1.60;;;9.60;99.90;;;;;;5043125;28;20183;-69
2020/12/24 01:33:26;;;;;;;1.60;1.50;;;9.50;99.90;;;;;;5049308;28;20245;-69
2020/12/24 01:35:52;;;;;;;1.37;1.27;;;9.50;99.90;;;;;;5041632;28;20211;-69
2020/12/24 01:38:18;;;;;;;2.13;1.30;;;9.50;99.90;;;;;;5046765;28;20176;-69
2020/12/24 01:40:45;;;;;;;1.80;1.10;;;9.50;99.90;;;;;;5038455;28;20207;-70
2020/12/24 01:43:10;;;;;;;1.20;1.20;;;9.50;99.90;;;;;;5047262;28;20817;-68
2020/12/24 01:45:36;;;;;;;1.50;1.20;;;9.50;99.90;;;;;;5045587;28;20179;-69
2020/12/24 01:48:02;;;;;;;2.83;1.10;;;9.50;99.90;;;;;;5039186;28;20172;-69
2020/12/24 01:50:28;;;;;;;1.23;1.20;;;9.50;99.90;;;;;;5043637;28;20186;-69
2020/12/24 01:52:56;;;;;;;1.87;1.40;;;9.50;99.90;;;;;;5037701;28;20294;-68
2020/12/24 01:55:23;;;;;;;1.20;1.10;;;9.40;99.90;;;;;;5035463;28;20260;-69
2020/12/24 01:57:51;;;;;;;1.80;1.20;;;9.40;99.90;;;;;;5043713;28;20210;-69
2020/12/24 02:00:18;;;;;;;1.17;1.07;;;9.40;99.90;;;;;;5042561;28;20199;-69
2020/12/24 02:02:44;;;;;;;1.57;1.27;;;9.40;98.80;;;;;;5042825;28;20200;-69
2020/12/24 02:05:09;;;;;;;1.70;0.97;;;9.40;97.50;;;;;;5041243;28;20184;-69
2020/12/24 02:07:35;;;;;;;2.83;1.37;;;9.40;96.20;;;;;;5041269;28;20181;-69
2020/12/24 02:10:01;;;;;;;2.40;1.20;;;9.30;95.60;;;;;;5037664;28;20647;-69
2020/12/24 02:12:27;;;;;;;1.47;1.20;;;9.30;92.20;;;;;;5036212;28;20234;-69
2020/12/24 02:14:53;;;;;;;1.90;1.20;;;9.30;90.80;;;;;;5038197;28;20188;-69
2020/12/24 02:17:18;;;;;;;1.57;1.37;;;9.30;90.00;;;;;;5038204;28;20694;-69
2020/12/24 02:19:44;;;;;;;2.40;1.30;;;9.20;91.80;;;;;;5037222;28;20562;-69
2020/12/24 02:22:11;;;;;;;2.93;1.30;;;9.10;91.50;;;;;;5044386;28;20287;-69
2020/12/24 02:24:41;;;;;;;1.80;1.40;;;9.10;91.60;;;;;;5045858;28;21008;-70
2020/12/24 02:27:07;;;;;;;1.13;1.10;;;9.00;92.20;;;;;;5035098;28;20259;-70
2020/12/24 02:29:33;;;;;;;1.00;1.00;;;8.90;91.70;;;;;;5038900;28;20264;-70
2020/12/24 02:31:58;;;;;;;1.70;1.23;;;8.90;92.60;;;;;;5041302;28;20221;-70
2020/12/24 02:34:24;;;;;;;2.47;1.10;;;8.80;92.20;;;;;;5036549;28;20188;-69
2020/12/24 02:36:50;;;;;;;1.30;1.20;;;8.80;92.50;;;;;;5040627;28;20183;-68
2020/12/24 02:39:15;;;;;;;2.20;1.10;;;8.70;92.70;;;;;;5041635;28;20222;-69
2020/12/24 02:41:41;;;;;;;2.27;0.93;;;8.70;92.60;;;;;;5036612;28;20295;-70
2020/12/24 02:44:07;;;;;;;1.57;1.00;;;8.60;92.90;;;;;;5040198;28;20183;-70
2020/12/24 02:46:32;;;;;;;1.73;1.07;;;8.60;92.90;;;;;;5036894;28;20557;-69
2020/12/24 02:48:58;;;;;;;1.13;1.10;;;8.50;93.70;;;;;;5037896;28;20604;-69
2020/12/24 02:51:24;;;;;;;1.17;0.97;;;8.50;93.60;;;;;;5039236;28;20182;-69
2020/12/24 02:53:49;;;;;;;2.07;1.47;;;8.40;93.80;;;;;;5043742;28;20207;-69
2020/12/24 02:56:15;;;;;;;1.30;1.20;;;8.40;93.80;;;;;;5044810;28;20263;-69
2020/12/24 02:58:41;;;;;;;1.87;1.10;;;8.40;94.30;;;;;;5035186;28;20588;-69
2020/12/24 03:01:06;;;;;;;2.73;1.67;;;8.40;95.00;;;;;;5039651;28;20218;-69
2020/12/24 03:03:32;;;;;;;2.57;1.40;;;8.40;95.40;;;;;;5039805;28;20218;-69
2020/12/24 03:05:57;;;;;;;1.10;1.10;;;8.30;95.50;;;;;;5043240;28;20191;-69
2020/12/24 03:08:23;;;;;;;2.00;1.20;;;8.30;96.10;;;;;;5040746;28;20211;-69
2020/12/24 03:10:49;;;;;;;2.13;1.20;;;8.20;96.20;;;;;;5036037;28;20210;-70
2020/12/24 03:13:14;;;;;;;1.33;1.20;;;8.20;95.90;;;;;;5035570;28;20588;-70
2020/12/24 03:15:40;;;;;;;1.20;1.10;;;8.20;96.30;;;;;;5041101;28;20184;-70
2020/12/24 03:18:06;;;;;;;1.83;1.13;;;8.20;96.60;;;;;;5041081;28;20563;-69
2020/12/24 03:20:32;;;;;;;1.63;1.20;;;8.20;96.80;;;;;;5045742;28;20691;-70
2020/12/24 03:22:57;;;;;;;1.57;1.30;;;8.20;97.30;;;;;;5035239;28;20207;-69
2020/12/24 03:25:23;;;;;;;2.80;1.13;;;8.20;97.20;;;;;;5044052;28;20180;-70
2020/12/24 03:27:48;;;;;;;1.47;1.33;;;8.20;97.30;;;;;;5038892;28;20194;-69
2020/12/24 03:30:14;;;;;;;1.60;1.10;;;8.20;97.60;;;;;;5039014;28;20218;-69
2020/12/24 03:32:40;;;;;;;1.37;1.27;;;8.20;98.10;;;;;;5035260;28;20240;-69
2020/12/24 03:35:06;;;;;;;1.27;1.20;;;8.20;98.60;;;;;;5041922;28;20192;-69
2020/12/24 03:37:32;;;;;;;2.10;1.43;;;8.00;99.20;;;;;;5040479;28;20187;-68
2020/12/24 03:39:58;;;;;;;2.37;1.50;;;7.90;99.90;;;;;;5043557;28;20831;-70
2020/12/24 03:42:24;;;;;;;1.60;1.50;;;7.80;99.90;;;;;;5039867;28;20302;-71
2020/12/24 03:44:50;;;;;;;1.47;1.30;;;7.80;99.90;;;;;;5045014;28;20184;-70
2020/12/24 03:47:15;;;;;;;4.37;1.60;;;7.70;99.90;;;;;;5038526;28;20182;-70
2020/12/24 03:49:41;;;;;;;2.87;1.40;;;7.70;99.90;;;;;;5041124;28;20278;-69
2020/12/24 03:52:07;;;;;;;2.30;1.20;;;7.60;99.90;;;;;;5042387;28;20212;-70
2020/12/24 03:54:32;;;;;;;2.00;1.30;;;7.60;99.90;;;;;;5039994;28;20683;-69
2020/12/24 03:56:58;;;;;;;2.43;1.40;;;7.50;99.90;;;;;;5040665;28;20245;-69
2020/12/24 03:59:23;;;;;;;2.60;1.63;;;7.50;99.90;;;;;;5039543;28;20199;-69
2020/12/24 04:01:49;;;;;;;2.97;1.40;;;7.50;99.90;;;;;;5040815;28;20224;-70
2020/12/24 04:04:14;;;;;;;1.90;1.27;;;7.50;99.90;;;;;;5044016;28;20180;-69
2020/12/24 04:06:40;;;;;;;2.50;1.40;;;7.50;99.90;;;;;;5043324;28;20271;-69
2020/12/24 04:09:06;;;;;;;2.70;1.90;;;7.50;99.90;;;;;;5045862;28;20183;-69
2020/12/24 04:11:31;;;;;;;1.50;1.40;;;7.50;99.90;;;;;;5031839;28;20179;-69
2020/12/24 04:13:57;;;;;;;3.07;1.50;;;7.50;99.90;;;;;;5047061;28;20721;-69
2020/12/24 04:16:24;;;;;;;3.07;1.50;;;7.50;99.90;;;;;;5042719;28;20273;-70
2020/12/24 04:18:50;;;;;;;2.50;1.30;;;7.60;99.90;;;;;;5039305;28;20607;-71
2020/12/24 04:21:15;;;;;;;1.43;1.33;;;7.60;99.90;;;;;;5030135;28;20220;-71
2020/12/24 04:23:41;;;;;;;1.60;1.50;;;7.60;99.90;;;;;;5040283;28;20263;-70
2020/12/24 04:26:07;;;;;;;3.93;1.43;;;7.70;99.90;;;;;;5038519;28;20523;-69
2020/12/24 04:28:33;;;;;;;1.53;1.13;;;7.70;99.90;;;;;;5052258;28;20195;-70
2020/12/24 04:31:01;;;;;;;1.40;1.30;;;7.80;99.80;;;;;;5047017;28;20183;-71
2020/12/24 04:33:26;;;;;;;1.60;1.17;;;7.80;99.90;;;;;;5051530;28;20226;-70
2020/12/24 04:35:55;;;;;;;1.50;1.30;;;7.70;99.90;;;;;;5051673;28;20651;-71
2020/12/24 04:38:21;;;;;;;1.10;1.00;;;7.60;99.90;;;;;;5073157;28;20234;-71
2020/12/24 04:40:50;;;;;;;1.40;1.30;;;7.60;99.90;;;;;;5061578;28;20254;-70
2020/12/24 04:43:16;;;;;;;1.33;1.30;;;7.60;99.70;;;;;;5043149;28;20239;-71
2020/12/24 04:45:43;;;;;;;1.30;1.20;;;7.60;99.60;;;;;;5044191;28;20195;-71
2020/12/24 04:48:09;;;;;;;1.30;1.20;;;7.60;99.20;;;;;;5039626;28;20417;-70
2020/12/24 04:50:38;;;;;;;1.93;1.13;;;7.60;99.70;;;;;;5042912;28;20260;-71
2020/12/24 04:53:05;;;;;;;1.40;1.30;;;7.60;99.90;;;;;;5040435;28;20246;-71
2020/12/24 04:55:31;;;;;;;2.50;1.10;;;7.50;99.90;;;;;;5046551;28;20190;-71
2020/12/24 04:57:59;;;;;;;2.20;1.30;;;7.50;99.40;;;;;;5043897;28;20180;-71
2020/12/24 05:00:26;;;;;;;2.63;1.30;;;7.40;99.60;;;;;;5041071;28;20227;-72
2020/12/24 05:03:05;;;;;;;1.67;1.30;;;7.40;99.40;;;;;;5045321;28;20242;-73
2020/12/24 05:05:32;;;;;;;1.80;1.30;;;7.30;99.10;;;;;;5039293;28;20179;-71
2020/12/24 05:08:01;;;;;;;1.80;1.30;;;7.30;99.20;;;;;;5042445;28;20183;-71
2020/12/24 05:10:27;;;;;;;1.33;1.20;;;7.30;99.10;;;;;;5040036;28;20672;-71
2020/12/24 05:12:52;;;;;;;1.30;1.20;;;7.20;99.20;;;;;;5045957;28;20284;-71
2020/12/24 05:15:29;;;;;;;1.73;1.23;;;7.20;99.10;;;;;;5040279;28;20186;-71
2020/12/24 05:18:11;;;;;;;1.60;1.33;;;7.20;99.20;;;;;;5041215;28;20204;-71
2020/12/24 05:20:38;;;;;;;1.83;1.40;;;7.10;99.30;;;;;;5043497;28;20699;-71
2020/12/24 05:23:20;;;;;;;2.10;1.40;;;7.10;99.20;;;;;;5041091;28;20206;-71
2020/12/24 05:25:48;;;;;;;2.70;1.20;;;7.10;98.90;;;;;;5040294;28;20709;-71
2020/12/24 05:28:21;;;;;;;1.50;1.10;;;7.10;98.80;;;;;;5048255;28;20705;-71
2020/12/24 05:30:47;;;;;;;1.20;1.20;;;7.10;98.80;;;;;;5042406;28;20191;-71
2020/12/24 05:33:29;;;;;;;1.73;1.20;;;7.20;98.40;;;;;;5037032;28;20209;-71
2020/12/24 05:36:14;;;;;;;1.90;1.33;;;7.20;98.30;;;;;;5038775;28;20196;-71
2020/12/24 05:38:40;;;;;;;2.43;1.40;;;7.30;97.80;;;;;;5046649;28;20183;-72
2020/12/24 05:41:27;;;;;;;2.63;1.20;;;7.40;97.80;;;;;;5039332;28;20212;-72
2020/12/24 05:44:00;;;;;;;4.90;1.90;;;7.40;97.80;;;;;;5047372;28;20195;-71
2020/12/24 05:46:27;;;;;;;2.70;1.27;;;7.40;97.80;;;;;;5040758;28;20180;-72
2020/12/24 05:48:54;;;;;;;4.20;1.50;;;7.40;98.20;;;;;;5041558;28;20733;-72
2020/12/24 05:51:20;;;;;;;3.37;1.30;;;7.30;98.40;;;;;;5039504;28;20556;-73
2020/12/24 05:53:46;;;;;;;2.00;1.40;;;7.20;98.20;;;;;;5042730;28;20206;-71
2020/12/24 05:56:20;;;;;;;2.43;1.57;;;7.20;98.40;;;;;;5038622;28;20189;-70
2020/12/24 05:58:49;;;;;;;4.40;1.53;;;7.10;98.50;;;;;;5045799;28;20268;-71
2020/12/24 06:01:15;;;;;;;2.67;1.27;;;7.10;98.70;;;;;;5042475;28;20459;-70
2020/12/24 06:04:10;;;;;;;2.83;1.50;;;7.00;98.80;;;;;;5045923;28;20548;-70
2020/12/24 06:06:43;;;;;;;3.60;1.73;;;6.90;99.00;;;;;;4966635;28;20190;-70
2020/12/24 06:09:19;;;;;;;1.53;1.20;;;6.90;98.90;;;;;;4969339;28;20180;-69
2020/12/24 06:11:51;;;;;;;1.87;1.20;;;6.90;99.10;;;;;;4969723;28;20274;-69
2020/12/24 06:14:26;;;;;;;2.67;1.10;;;6.90;98.80;;;;;;4969314;28;20270;-69
2020/12/24 06:16:54;;;;;;;2.83;1.53;;;6.90;98.60;;;;;;4969582;28;20208;-69
2020/12/24 06:19:21;;;;;;;4.47;1.40;;;7.00;98.40;;;;;;4969746;28;20190;-69
2020/12/24 06:21:47;;;;;;;3.70;1.93;;;7.00;98.50;;;;;;4969048;28;20295;-69
2020/12/24 06:24:13;;;;;;;2.70;1.47;;;7.00;98.40;;;;;;4969494;28;20296;-69
2020/12/24 06:26:46;;;;;;;2.60;1.53;;;7.00;98.40;;;;;;4968428;28;20228;-70
2020/12/24 06:29:15;;;;;;;1.80;1.30;;;7.00;98.40;;;;;;4968987;28;20190;-70
2020/12/24 06:31:41;;;;;;;6.20;1.80;;;7.00;98.20;;;;;;4968926;28;20185;-71
2020/12/24 06:34:38;;;;;;;4.90;1.70;;;7.10;97.70;;;;;;4967517;28;20515;-70
2020/12/24 06:37:20;;;;;;;4.93;1.53;;;7.20;97.50;;;;;;4967110;28;20197;-71
2020/12/24 06:39:50;;;;;;;3.70;1.80;;;7.20;97.20;;;;;;4968427;28;20200;-71
2020/12/24 06:42:45;;;;;;;4.10;1.87;;;7.30;97.10;;;;;;4984601;28;20629;-71
2020/12/24 06:45:19;;;;;;;4.23;1.60;;;7.40;96.80;;;;;;5044572;28;20171;-70
2020/12/24 06:48:08;;;;;;;6.63;1.77;;;7.40;96.70;;;;;;5038683;28;20420;-70
2020/12/24 06:50:37;;;;;;;2.60;1.63;;;7.30;96.60;;;;;;5038822;28;20184;-70
2020/12/24 06:53:25;;;;;;;2.93;1.40;;;7.30;96.60;;;;;;5039827;28;20234;-70
2020/12/24 06:58:48;;;;;;;4.27;1.90;;;7.20;96.60;;;;;;5041866;28;20182;-70
2020/12/24 07:01:14;;;;;;;2.83;1.63;;;7.20;96.60;;;;;;5022741;28;20865;-70
2020/12/24 07:03:40;;;;;;;3.10;1.53;;;7.20;96.40;;;;;;5041785;28;20277;-70
2020/12/24 07:06:06;;;;;;;2.63;1.70;;;7.30;95.90;;;;;;5042565;28;20191;-69
2020/12/24 07:08:31;;;;;;;5.20;2.10;;;7.30;95.50;;;;;;5043406;28;20183;-71
2020/12/24 07:10:57;;;;;;;3.03;1.73;;;7.40;95.00;;;;;;5038488;28;20175;-71
2020/12/24 07:13:33;;;;;;;2.90;1.80;;;7.40;94.70;;;;;;5037469;28;20206;-70
2020/12/24 07:15:58;;;;;;;3.10;1.83;;;7.40;94.50;;;;;;5037784;28;20562;-71
2020/12/24 07:18:24;;;;;;;3.63;1.57;;;7.40;94.70;;;;;;5035297;28;20184;-71
2020/12/24 07:20:52;;;;;;;3.87;1.80;;;7.50;94.50;;;;;;5039571;28;20194;-71
2020/12/24 07:23:37;;;;;;;6.63;2.13;;;7.50;94.10;;;;;;5039723;28;20196;-70
2020/12/24 07:26:12;;;;;;;6.53;2.40;;;7.50;93.60;;;;;;5038350;28;20971;-70
2020/12/24 07:28:40;;;;;;;3.73;1.90;;;7.60;93.50;;;;;;5040886;28;20187;-71
2020/12/24 07:31:10;;;;;;;4.10;1.90;;;7.60;93.10;;;;;;5036253;28;20259;-70
2020/12/24 07:33:44;;;;;;;4.80;2.20;;;7.70;92.80;;;;;;5037751;28;20286;-70
2020/12/24 07:36:10;;;;;;;4.20;2.13;;;7.70;92.50;;;;;;5038333;28;20220;-70
2020/12/24 07:38:35;;;;;;;4.57;1.80;;;7.60;92.20;;;;;;5036047;28;20219;-71
2020/12/24 07:41:01;;;;;;;2.97;1.87;;;7.70;92.10;;;;;;5038157;28;20204;-70
2020/12/24 07:43:27;;;;;;;3.37;1.57;;;7.70;91.50;;;;;;5034632;28;20208;-72
2020/12/24 07:45:52;;;;;;;6.47;2.50;;;7.80;91.10;;;;;;5036461;28;20210;-70
2020/12/24 07:48:19;;;;;;;4.73;1.90;;;7.80;90.50;;;;;;5041275;28;20271;-70
2020/12/24 07:50:46;;;;;;;6.67;2.47;;;7.90;90.30;;;;;;5039313;28;20199;-70
2020/12/24 07:53:22;;;;;;;4.37;1.87;;;8.00;89.10;;;;;;5038036;28;20222;-71
2020/12/24 07:55:49;;;;;;;4.50;2.10;;;8.10;89.70;;;;;;5040177;28;20184;-70
2020/12/24 07:58:16;;;;;;;1.90;1.70;;;8.20;88.00;;;;;;5041355;28;20204;-70
2020/12/24 08:00:47;;;;;;;7.13;2.30;;;8.20;87.50;;;;;;5044001;28;20219;-71
2020/12/24 08:03:17;;;;;;;5.10;2.00;;;8.30;88.20;;;;;;5047430;28;20211;-71
2020/12/24 08:05:44;;;;;;;7.10;2.83;;;8.40;85.80;;;;;;5038246;28;20193;-71
2020/12/24 08:08:11;;;;;;;8.33;2.10;;;8.40;86.40;;;;;;5039823;28;20196;-70
2020/12/24 08:10:43;;;;;;;6.57;2.10;;;8.40;85.10;;;;;;5041242;28;20219;-70
2020/12/24 08:13:10;;;;;;;4.03;2.70;;;8.40;84.60;;;;;;5040446;28;20265;-70
2020/12/24 08:15:46;;;;;;;4.53;2.20;;;8.50;84.50;;;;;;5048639;28;20188;-72
2020/12/24 08:18:13;;;;;;;2.90;1.97;;;8.50;84.00;;;;;;5038809;28;20184;-72
2020/12/24 08:20:45;;;;;;;5.27;2.50;;;8.50;84.00;;;;;;5040492;28;20620;-72
2020/12/24 08:23:20;;;;;;;3.37;2.30;;;8.50;83.70;;;;;;5047573;28;20209;-71
2020/12/24 08:25:52;;;;;;;4.67;1.80;;;8.60;83.70;;;;;;5039871;28;20187;-71
2020/12/24 08:28:19;;;;;;;6.10;2.30;;;8.70;82.20;;;;;;5037946;28;20279;-71
2020/12/24 08:30:46;;;;;;;5.70;2.37;;;8.70;83.80;;;;;;5043019;28;20262;-70
2020/12/24 08:33:13;;;;;;;5.33;1.70;;;8.80;83.50;;;;;;5040456;28;20199;-69
2020/12/24 08:35:39;;;;;;;3.77;1.80;;;8.70;83.60;;;;;;5044588;28;20194;-71
2020/12/24 08:38:13;;;;;;;2.50;1.53;;;8.60;84.00;;;;;;5041938;28;20188;-70
2020/12/24 08:40:39;;;;;;;3.97;1.70;;;8.50;85.20;;;;;;5044243;28;20199;-70
2020/12/24 08:43:09;;;;;;;2.73;1.60;;;8.40;86.20;;;;;;5041430;28;20205;-71
2020/12/24 08:45:50;;;;;;;2.03;1.60;;;8.20;88.60;;;;;;5037792;28;20682;-70
2020/12/24 08:48:28;;;;;;;1.67;1.57;;;8.00;89.80;;;;;;5030146;28;20191;-70
2020/12/24 08:51:22;;;;;;;4.53;2.23;;;8.00;90.20;;;;;;5062814;28;20213;-71
2020/12/24 08:53:49;;;;;;;1.63;1.50;;;7.80;91.00;;;;;;5059331;28;20207;-70
2020/12/24 08:56:16;;;;;;;4.53;1.73;;;7.80;91.40;;;;;;5054756;28;20266;-70
2020/12/24 08:58:52;;;;;;;1.77;1.67;;;7.70;91.70;;;;;;5043557;28;20209;-71
2020/12/24 09:01:19;;;;;;;3.37;1.50;;;7.70;91.40;;;;;;5030334;28;20681;-70
2020/12/24 09:03:45;;;;;;;2.70;1.40;;;7.70;91.00;;;;;;5046299;28;20617;-70
2020/12/24 09:06:18;;;;;;;3.37;1.93;;;7.70;91.30;;;;;;5043694;28;20266;-70
2020/12/24 09:08:50;;;;;;;3.80;1.60;;;7.80;91.50;;;;;;5029422;28;20189;-70
2020/12/24 09:11:34;;;;;;;3.73;1.87;;;7.80;91.40;;;;;;5045732;28;20293;-70
2020/12/24 09:14:03;;;;;;;5.33;2.00;;;7.90;91.30;;;;;;5036998;28;20188;-72
2020/12/24 09:16:32;;;;;;;2.20;1.60;;;7.90;91.30;;;;;;5043002;28;20176;-73
2020/12/24 09:19:05;;;;;;;5.83;1.80;;;7.90;91.20;;;;;;5039743;28;20594;-71
2020/12/24 09:21:32;;;;;;;1.77;1.63;;;8.10;91.00;;;;;;5043909;28;20175;-71
2020/12/24 09:24:08;;;;;;;1.57;1.47;;;8.20;90.60;;;;;;5041311;28;20259;-71
2020/12/24 09:26:51;;;;;;;5.20;2.03;;;8.30;90.40;;;;;;5038309;28;20727;-71
2020/12/24 09:29:18;;;;;;;3.93;2.17;;;8.50;90.20;;;;;;5049045;28;20239;-71
2020/12/24 09:32:00;;;;;;;2.17;1.60;;;8.60;89.10;;;;;;5045567;28;20697;-71
2020/12/24 09:34:27;;;;;;;1.93;1.60;;;8.60;89.10;;;;;;5044976;28;20183;-72
2020/12/24 09:36:53;;;;;;;5.33;1.60;;;8.50;88.40;;;;;;5043287;28;20270;-72
2020/12/24 09:39:19;;;;;;;3.77;1.63;;;8.50;88.70;;;;;;5042401;28;20823;-72
2020/12/24 09:41:46;;;;;;;1.40;1.30;;;8.50;88.40;;;;;;5041402;28;20571;-73
2020/12/24 09:44:13;;;;;;;1.43;1.30;;;8.50;89.10;;;;;;5046536;28;20246;-74
2020/12/24 09:46:39;;;;;;;3.20;1.80;;;8.50;89.00;;;;;;5042318;28;20180;-73
2020/12/24 09:49:06;;;;;;;1.80;1.40;;;8.40;88.40;;;;;;5047405;28;20223;-74
2020/12/24 09:51:33;;;;;;;3.33;1.50;;;8.40;87.80;;;;;;5043862;28;20207;-72
2020/12/24 09:53:59;;;;;;;1.93;1.40;;;8.40;87.40;;;;;;5042377;28;20219;-73
2020/12/24 09:56:26;;;;;;;1.60;1.50;;;8.30;88.20;;;;;;5042748;28;20183;-70
2020/12/24 09:58:52;;;;;;;2.40;1.47;;;8.30;87.40;;;;;;5027238;28;20543;-73
2020/12/24 10:01:17;;;;;;;3.83;2.33;;;8.40;88.00;;;;;;5040241;28;20179;-70
2020/12/24 10:03:43;;;;;;;3.73;1.57;;;8.30;88.60;;;;;;5039998;28;20871;-73
2020/12/24 10:06:09;;;;;;;4.43;1.77;;;8.30;88.40;;;;;;5039240;28;20176;-72
2020/12/24 10:08:35;;;;;;;2.43;1.30;;;8.30;88.70;;;;;;5039128;28;20184;-71
2020/12/24 10:11:00;;;;;;;2.23;1.77;;;8.40;88.40;;;;;;5037939;28;20202;-74
2020/12/24 10:13:26;;;;;;;2.37;1.77;;;8.40;87.90;;;;;;5041948;28;20658;-73
2020/12/24 10:15:52;;;;;;;2.20;1.70;;;8.40;88.40;;;;;;5042931;28;20268;-69
2020/12/24 10:18:17;;;;;;;3.33;2.10;;;8.40;87.80;;;;;;5046378;28;20985;-70
2020/12/24 10:20:43;;;;;;;2.20;1.60;;;8.40;88.60;;;;;;5046120;28;20282;-72
2020/12/24 10:23:10;;;;;;;3.70;1.70;;;8.40;87.40;;;;;;5036368;28;20278;-71
2020/12/24 10:25:39;;;;;;;1.83;1.57;;;8.40;89.00;;;;;;5020712;28;20318;-71
2020/12/24 10:28:06;;;;;;;2.70;2.00;;;8.40;87.80;;;;;;5025169;28;20195;-71
2020/12/24 10:30:32;;;;;;;3.20;1.50;;;8.50;87.80;;;;;;5032453;28;20215;-70
2020/12/24 10:32:57;;;;;;;2.57;1.50;;;8.50;86.90;;;;;;5034716;28;20203;-71
2020/12/24 10:35:23;;;;;;;3.07;1.60;;;8.50;87.70;;;;;;5040504;28;20177;-71
2020/12/24 10:37:48;;;;;;;2.73;1.40;;;8.50;87.80;;;;;;5041120;28;20229;-70
2020/12/24 10:40:14;;;;;;;2.93;1.60;;;8.50;87.70;;;;;;5038669;28;20192;-70
2020/12/24 10:42:40;;;;;;;2.13;1.40;;;8.50;88.60;;;;;;5044373;28;20282;-71
2020/12/24 10:45:07;;;;;;;2.53;1.60;;;8.50;88.80;;;;;;5045251;28;20172;-71
2020/12/24 10:47:33;;;;;;;3.30;1.77;;;8.60;87.80;;;;;;5041383;28;20192;-69
2020/12/24 10:49:58;;;;;;;2.37;1.60;;;8.60;88.50;;;;;;5036644;28;20241;-72
2020/12/24 10:52:24;;;;;;;4.10;1.83;;;8.60;88.60;;;;;;5042244;28;20211;-70
2020/12/24 10:54:50;;;;;;;3.57;1.50;;;8.80;87.40;;;;;;5037917;28;20186;-71
2020/12/24 10:57:15;;;;;;;3.27;2.50;;;8.90;87.60;;;;;;5025824;28;20350;-71
2020/12/24 10:59:42;;;;;;;3.10;1.77;;;9.50;86.20;;;;;;5039871;28;20172;-70
2020/12/24 11:02:07;;;;;;;2.57;1.83;;;10.10;81.00;;;;;;5040382;28;20210;-70
2020/12/24 11:04:33;;;;;;;1.80;1.70;;;9.90;80.80;;;;;;5037479;28;20459;-71
2020/12/24 11:06:59;;;;;;;4.00;1.70;;;9.80;81.80;;;;;;5047133;28;20561;-71
2020/12/24 11:09:24;;;;;;;2.13;1.60;;;9.50;83.40;;;;;;5042733;28;20184;-72
2020/12/24 11:11:50;;;;;;;2.47;1.50;;;9.40;84.20;;;;;;5035889;28;20208;-71
2020/12/24 11:14:16;;;;;;;3.60;1.50;;;9.30;85.10;;;;;;5045365;28;20182;-72
2020/12/24 11:16:41;;;;;;;1.33;1.23;;;9.20;84.40;;;;;;5039131;28;20180;-72
2020/12/24 11:19:07;;;;;;;3.87;1.70;;;9.10;85.40;;;;;;5041503;28;20180;-74
2020/12/24 11:21:34;;;;;;;1.30;1.20;;;9.10;85.90;;;;;;5044496;28;20258;-76
2020/12/24 11:24:06;;;;;;;1.87;1.57;;;9.10;85.40;;;;;;5041548;28;20592;-74
2020/12/24 11:26:34;;;;;;;1.57;1.33;;;9.10;86.20;;;;;;5032249;28;20665;-72
2020/12/24 11:29:01;;;;;;;1.70;1.60;;;9.30;86.10;;;;;;5043732;28;20214;-73
2020/12/24 11:31:29;;;;;;;3.33;1.53;;;9.40;85.50;;;;;;5040623;28;20562;-73
2020/12/24 11:33:55;;;;;;;1.60;1.30;;;9.30;85.50;;;;;;5042901;28;20207;-73
2020/12/24 11:36:21;;;;;;;2.20;1.50;;;9.20;85.80;;;;;;5031934;28;20554;-73
2020/12/24 11:38:47;;;;;;;2.47;1.30;;;9.20;85.80;;;;;;5036172;28;20180;-73
2020/12/24 11:41:15;;;;;;;3.63;1.67;;;9.10;87.20;;;;;;5031930;28;20699;-73
2020/12/24 11:43:41;;;;;;;1.33;1.27;;;9.10;86.40;;;;;;5038725;28;20682;-72
2020/12/24 11:46:11;;;;;;;2.27;2.07;;;9.50;84.40;;;;;;5038820;28;20187;-71
2020/12/24 11:48:37;;;;;;;1.93;1.60;;;9.70;82.80;;;;;;5039396;28;20180;-72
2020/12/24 11:51:10;;;;;;;2.80;2.00;;;9.70;82.20;;;;;;5040704;28;20196;-72
2020/12/24 11:53:37;;;;;;;3.53;1.30;;;9.50;83.70;;;;;;5038328;28;20199;-73
2020/12/24 11:56:16;;;;;;;4.40;1.73;;;9.40;84.80;;;;;;5021275;28;20214;-71
2020/12/24 11:58:43;;;;;;;2.03;1.40;;;9.40;84.20;;;;;;5035878;28;20172;-72
2020/12/24 12:01:11;;;;;;;2.37;1.50;;;9.30;85.10;;;;;;5034674;28;20262;-72
2020/12/24 12:03:37;;;;;;;1.50;1.20;;;9.20;85.20;;;;;;5026428;28;20203;-72
2020/12/24 12:06:05;;;;;;;1.70;1.33;;;9.20;85.80;;;;;;5033075;28;20184;-73
2020/12/24 12:08:31;;;;;;;1.83;1.40;;;9.50;84.60;;;;;;5041773;28;20716;-72
2020/12/24 12:11:00;;;;;;;2.40;1.77;;;9.70;83.60;;;;;;5037446;28;20275;-71
2020/12/24 12:13:26;;;;;;;2.13;1.63;;;10.40;80.10;;;;;;5035141;28;20195;-72
2020/12/24 12:15:51;;;;;;;1.50;1.40;;;11.20;75.20;;;;;;5033051;28;20188;-72
2020/12/24 12:18:17;;;;;;;1.93;1.10;;;11.70;71.40;;;;;;5042525;28;20176;-73
2020/12/24 12:20:42;;;;;;;1.20;1.10;;;11.90;68.50;;;;;;5041730;28;20693;-72
2020/12/24 12:23:08;;;;;;;1.73;1.10;;;12.50;65.80;;;;;;5041832;28;20231;-74
2020/12/24 12:25:33;;;;;;;2.70;1.27;;;11.80;67.40;;;;;;5032576;28;20189;-73
2020/12/24 12:27:59;;;;;;;1.55;1.23;;;12.20;66.90;;;;;;5035560;28;20188;-73
2020/12/24 12:30:25;;;;;;;3.08;1.23;;;13.10;62.90;;;;;;5040438;28;20199;-74
2020/12/24 12:32:50;;;;;;;2.00;1.30;;;13.90;60.20;;;;;;5047076;28;20204;-75
2020/12/24 12:35:18;;;;;;;2.10;1.42;;;14.10;58.60;;;;;;5039331;28;20179;-73
2020/12/24 12:37:43;;;;;;;2.50;1.00;;;14.60;57.50;;;;;;5043244;28;20168;-72
2020/12/24 12:40:09;;;;;;;1.65;0.82;;;15.30;55.30;;;;;;5042729;28;20254;-74
2020/12/24 12:42:35;;;;;;;2.05;1.17;;;15.90;53.20;;;;;;5039594;28;20694;-73
2020/12/24 12:45:01;;;;;;;1.55;1.20;;;15.50;53.50;;;;;;5034495;28;20199;-73
2020/12/24 12:47:26;;;;;;;2.40;1.50;;;15.20;54.00;;;;;;5044776;28;20578;-73
2020/12/24 12:49:52;;;;;;;1.50;1.40;;;15.20;54.50;;;;;;5044152;28;20306;-72
2020/12/24 12:52:19;;;;;;;1.38;1.02;;;14.70;55.40;;;;;;5040451;28;20216;-72
2020/12/24 12:54:45;;;;;;;1.00;1.00;;;13.70;57.20;;;;;;5042661;28;20183;-72
2020/12/24 12:57:11;;;;;;;3.53;1.25;;;12.80;59.80;;;;;;5040775;28;20725;-72
2020/12/24 12:59:37;;;;;;;1.40;1.27;;;11.90;64.50;;;;;;5047345;28;20655;-72
2020/12/24 13:02:02;;;;;;;2.63;1.77;;;12.10;65.00;;;;;;5049461;28;20258;-71